Time;durP1;ratioP1;P1;durP2;ratioP2;P2;SDS_P1;SDS_P2;PMS_P1;PMS_P2;Temp;Humidity;BMP_temperature;BMP_pressure;BME280_temperature;BME280_humidity;BME280_pressure;Samples;Min_cycle;Max_cycle;Signal;HPM_P1;HPM_P2
2021/05/18 00:00:24;;;;;;;21.05;12.95;;;;;;;;;;2073583;28;20190;-55
2021/05/18 00:01:24;;;;;;;18.40;12.65;;;;;;;;;;2073754;28;20171;-58
2021/05/18 00:02:24;;;;;;;21.10;12.95;;;;;;;;;;2072906;28;20199;-59
2021/05/18 00:03:25;;;;;;;17.38;11.77;;;;;;;;;;2073192;28;20164;-60
2021/05/18 00:04:25;;;;;;;19.02;12.98;;;;;;;;;;2073186;28;20279;-57
2021/05/18 00:06:29;;;;;;;20.13;12.88;;;;;;;;;;2061107;28;20218;-51
2021/05/18 00:07:29;;;;;;;20.85;12.98;;;;;;;;;;2064310;28;20181;-55
2021/05/18 00:08:32;;;;;;;20.48;12.95;;;;;;;;;;2065251;28;20248;-54
2021/05/18 00:12:12;;;;;;;17.13;12.70;;;;;;;;;;2060329;28;20257;-52
2021/05/18 00:13:12;;;;;;;19.02;13.32;;;;;;;;;;2067595;28;20600;-53
2021/05/18 00:14:17;;;;;;;18.65;12.65;;;;;;;;;;2064236;28;20756;-52
2021/05/18 00:15:19;;;;;;;18.42;13.70;;;;;;;;;;2064176;28;20197;-53
2021/05/18 00:16:19;;;;;;;19.45;13.95;;;;;;;;;;2056095;28;20198;-59
2021/05/18 00:17:19;;;;;;;19.40;13.15;;;;;;;;;;2055977;28;20174;-54
2021/05/18 00:18:20;;;;;;;16.90;13.13;;;;;;;;;;2064631;28;20190;-53
2021/05/18 00:19:21;;;;;;;18.63;13.13;;;;;;;;;;2052523;28;20565;-55
2021/05/18 00:20:21;;;;;;;23.40;13.13;;;;;;;;;;2051544;28;20253;-53
2021/05/18 00:21:21;;;;;;;21.73;13.23;;;;;;;;;;2064795;28;20204;-55
2021/05/18 00:22:22;;;;;;;21.33;13.60;;;;;;;;;;2064736;28;20170;-50
2021/05/18 00:23:22;;;;;;;17.77;12.65;;;;;;;;;;2064401;28;20532;-51
2021/05/18 00:24:23;;;;;;;19.80;13.20;;;;;;;;;;2062371;28;20162;-53
2021/05/18 00:25:23;;;;;;;17.48;12.43;;;;;;;;;;2064375;28;20204;-54
2021/05/18 00:26:23;;;;;;;19.15;14.20;;;;;;;;;;2067096;28;20297;-52
2021/05/18 00:27:24;;;;;;;19.73;13.23;;;;;;;;;;2063939;28;20182;-56
2021/05/18 00:28:24;;;;;;;21.63;12.90;;;;;;;;;;2065821;28;20579;-54
2021/05/18 00:29:24;;;;;;;22.83;13.23;;;;;;;;;;2065306;28;20178;-51
2021/05/18 00:30:25;;;;;;;22.17;14.55;;;;;;;;;;2065943;28;20177;-53
2021/05/18 00:31:25;;;;;;;21.55;13.02;;;;;;;;;;2063766;28;20166;-53
2021/05/18 00:32:26;;;;;;;19.83;13.18;;;;;;;;;;2066321;28;20177;-52
2021/05/18 00:33:29;;;;;;;19.95;13.65;;;;;;;;;;2065521;28;20194;-55
2021/05/18 00:34:29;;;;;;;24.23;14.15;;;;;;;;;;2060771;28;20209;-55
2021/05/18 00:35:29;;;;;;;21.67;13.25;;;;;;;;;;2065181;28;20192;-53
2021/05/18 00:36:30;;;;;;;18.35;13.75;;;;;;;;;;2060402;28;20166;-58
2021/05/18 00:37:30;;;;;;;19.48;12.65;;;;;;;;;;2057060;28;20605;-52
2021/05/18 00:38:30;;;;;;;20.40;12.77;;;;;;;;;;2062756;28;20161;-52
2021/05/18 00:39:31;;;;;;;19.15;13.75;;;;;;;;;;2062394;28;20169;-54
2021/05/18 00:40:31;;;;;;;21.88;14.50;;;;;;;;;;2058484;28;20245;-54
2021/05/18 00:41:32;;;;;;;23.20;14.60;;;;;;;;;;2056527;28;20170;-53
2021/05/18 00:42:42;;;;;;;21.08;14.13;;;;;;;;;;2063426;28;20213;-54
2021/05/18 00:43:43;;;;;;;24.67;14.23;;;;;;;;;;2064616;28;20296;-53
2021/05/18 00:44:43;;;;;;;26.83;15.35;;;;;;;;;;2057718;28;20572;-53
2021/05/18 00:45:47;;;;;;;21.05;14.32;;;;;;;;;;2059074;28;20268;-50
2021/05/18 00:46:48;;;;;;;23.55;14.73;;;;;;;;;;2064041;28;20616;-53
2021/05/18 00:47:48;;;;;;;26.13;15.85;;;;;;;;;;2053728;28;20170;-51
2021/05/18 00:48:57;;;;;;;27.10;16.33;;;;;;;;;;2050565;28;20689;-52
2021/05/18 00:50:03;;;;;;;22.27;15.55;;;;;;;;;;2058842;28;20231;-51
2021/05/18 00:51:06;;;;;;;20.65;14.93;;;;;;;;;;2066153;28;20653;-54
2021/05/18 00:52:06;;;;;;;25.55;15.35;;;;;;;;;;2065987;28;20161;-51
2021/05/18 00:53:08;;;;;;;24.25;15.30;;;;;;;;;;2065729;28;20188;-52
2021/05/18 00:54:25;;;;;;;25.48;15.73;;;;;;;;;;2056725;28;20178;-51
2021/05/18 00:58:53;;;;;;;25.42;15.27;;;;;;;;;;2064338;28;20292;-52
2021/05/18 00:59:54;;;;;;;22.90;15.18;;;;;;;;;;2061718;28;20190;-51
2021/05/18 01:00:56;;;;;;;27.00;15.55;;;;;;;;;;2048870;28;20214;-54
2021/05/18 01:01:56;;;;;;;26.88;16.63;;;;;;;;;;2048126;28;20665;-52
2021/05/18 01:02:56;;;;;;;22.45;15.82;;;;;;;;;;2048526;28;20214;-56
2021/05/18 01:03:57;;;;;;;28.83;16.08;;;;;;;;;;2055071;28;20182;-53
2021/05/18 01:05:07;;;;;;;27.10;15.52;;;;;;;;;;2056344;28;20221;-51
2021/05/18 01:06:22;;;;;;;25.90;16.50;;;;;;;;;;2055630;28;20214;-49
2021/05/18 01:07:22;;;;;;;23.23;16.20;;;;;;;;;;2061347;28;20183;-57
2021/05/18 01:08:23;;;;;;;24.85;16.15;;;;;;;;;;2056058;28;20594;-55
2021/05/18 01:09:24;;;;;;;26.05;15.85;;;;;;;;;;2050313;28;20170;-53
2021/05/18 01:10:24;;;;;;;31.02;16.23;;;;;;;;;;2046902;28;20199;-51
2021/05/18 01:11:29;;;;;;;28.33;16.52;;;;;;;;;;2053043;28;20190;-51
2021/05/18 01:12:29;;;;;;;31.40;16.58;;;;;;;;;;2065813;28;20245;-52
2021/05/18 01:13:31;;;;;;;25.83;16.52;;;;;;;;;;2057470;28;20179;-52
2021/05/18 01:14:32;;;;;;;28.38;16.60;;;;;;;;;;2056623;28;20173;-53
2021/05/18 01:15:33;;;;;;;29.75;17.40;;;;;;;;;;2065380;28;20687;-51
2021/05/18 01:16:35;;;;;;;27.45;16.35;;;;;;;;;;2065439;28;20786;-54
2021/05/18 01:17:36;;;;;;;26.10;16.05;;;;;;;;;;2066027;28;20170;-54
2021/05/18 01:18:39;;;;;;;27.98;16.38;;;;;;;;;;2065136;28;20193;-55
2021/05/18 01:19:39;;;;;;;19.90;14.68;;;;;;;;;;2066132;28;20821;-55
2021/05/18 01:20:52;;;;;;;25.02;15.80;;;;;;;;;;2056834;28;20261;-55
2021/05/18 01:21:55;;;;;;;24.23;14.02;;;;;;;;;;2050741;28;20581;-52
2021/05/18 01:22:55;;;;;;;23.92;15.85;;;;;;;;;;2041545;28;20662;-57
2021/05/18 01:23:56;;;;;;;27.45;15.48;;;;;;;;;;2053115;28;20199;-53
2021/05/18 01:24:56;;;;;;;23.98;15.50;;;;;;;;;;2051401;28;20175;-54
2021/05/18 01:25:57;;;;;;;30.58;15.30;;;;;;;;;;2035924;29;20219;-56
2021/05/18 01:26:57;;;;;;;26.27;15.18;;;;;;;;;;2052403;28;20187;-53
2021/05/18 01:27:57;;;;;;;23.85;14.75;;;;;;;;;;2067793;28;20177;-51
2021/05/18 01:28:58;;;;;;;32.35;16.92;;;;;;;;;;2065072;28;20226;-55
2021/05/18 01:29:58;;;;;;;22.10;14.93;;;;;;;;;;2059105;28;20233;-54
2021/05/18 01:31:00;;;;;;;23.65;15.40;;;;;;;;;;2058898;28;21025;-53
2021/05/18 01:32:04;;;;;;;22.25;14.68;;;;;;;;;;2068666;28;20172;-53
2021/05/18 01:33:04;;;;;;;26.88;16.13;;;;;;;;;;2068034;28;20185;-57
2021/05/18 01:34:05;;;;;;;29.30;16.13;;;;;;;;;;2056788;28;20171;-54
2021/05/18 01:35:12;;;;;;;28.08;15.13;;;;;;;;;;2049814;28;20187;-53
2021/05/18 01:36:15;;;;;;;27.48;16.00;;;;;;;;;;2059633;28;20221;-52
2021/05/18 01:37:16;;;;;;;29.75;15.05;;;;;;;;;;2058578;28;20186;-56
2021/05/18 01:38:21;;;;;;;25.33;15.55;;;;;;;;;;2058592;28;20178;-54
2021/05/18 01:39:31;;;;;;;25.20;16.15;;;;;;;;;;2066644;28;20244;-53
2021/05/18 01:43:11;;;;;;;26.73;15.15;;;;;;;;;;2057327;28;20316;-53
2021/05/18 01:44:12;;;;;;;21.92;14.15;;;;;;;;;;2065031;28;20174;-51
2021/05/18 01:45:14;;;;;;;27.00;15.60;;;;;;;;;;2061572;28;20174;-55
2021/05/18 01:46:15;;;;;;;25.50;16.30;;;;;;;;;;2065598;28;20182;-55
2021/05/18 01:47:15;;;;;;;19.83;13.52;;;;;;;;;;2063489;28;20193;-51
2021/05/18 01:48:20;;;;;;;27.58;15.13;;;;;;;;;;2052491;28;20217;-52
2021/05/18 01:49:21;;;;;;;22.98;15.80;;;;;;;;;;2051939;28;20181;-56
2021/05/18 01:50:24;;;;;;;23.35;14.82;;;;;;;;;;2057856;28;20221;-53
2021/05/18 01:51:28;;;;;;;26.73;15.05;;;;;;;;;;2064943;28;20178;-54
2021/05/18 01:52:29;;;;;;;26.63;15.77;;;;;;;;;;2066577;28;20177;-54
2021/05/18 01:53:29;;;;;;;24.70;14.35;;;;;;;;;;2066975;28;20316;-51
2021/05/18 01:54:31;;;;;;;22.15;14.07;;;;;;;;;;2053677;28;20238;-53
2021/05/18 01:55:40;;;;;;;24.98;14.40;;;;;;;;;;2057281;28;20222;-52
2021/05/18 01:56:46;;;;;;;24.60;14.45;;;;;;;;;;2045592;28;20168;-53
2021/05/18 01:57:46;;;;;;;23.85;14.55;;;;;;;;;;2051991;28;20167;-50
2021/05/18 01:58:49;;;;;;;26.90;16.13;;;;;;;;;;2049653;28;20187;-54
2021/05/18 02:00:01;;;;;;;28.67;14.65;;;;;;;;;;2051516;28;20197;-50
2021/05/18 02:01:01;;;;;;;28.45;14.65;;;;;;;;;;2058085;28;20190;-52
2021/05/18 02:02:04;;;;;;;20.58;14.10;;;;;;;;;;2066353;28;20177;-53
2021/05/18 02:03:05;;;;;;;25.55;14.27;;;;;;;;;;2058235;28;20237;-51
2021/05/18 02:04:06;;;;;;;23.35;15.15;;;;;;;;;;2054980;28;20761;-52
2021/05/18 02:05:09;;;;;;;23.05;14.13;;;;;;;;;;2062395;28;20667;-52
2021/05/18 02:06:16;;;;;;;22.02;14.55;;;;;;;;;;2049715;28;20233;-51
2021/05/18 02:07:20;;;;;;;25.90;14.35;;;;;;;;;;2047446;28;20175;-56
2021/05/18 02:08:21;;;;;;;25.75;14.30;;;;;;;;;;2066733;28;20208;-54
2021/05/18 02:09:25;;;;;;;19.50;14.23;;;;;;;;;;2049021;28;20187;-53
2021/05/18 02:10:29;;;;;;;27.75;14.48;;;;;;;;;;2051214;28;20167;-53
2021/05/18 02:11:40;;;;;;;23.95;14.48;;;;;;;;;;2057287;28;20265;-51
2021/05/18 02:12:40;;;;;;;26.95;15.20;;;;;;;;;;2047291;28;20179;-53
2021/05/18 02:13:47;;;;;;;25.80;14.70;;;;;;;;;;2049555;28;20187;-52
2021/05/18 02:15:01;;;;;;;23.98;15.00;;;;;;;;;;2045285;28;20191;-54
2021/05/18 02:16:10;;;;;;;23.35;14.55;;;;;;;;;;2051060;28;20245;-50
2021/05/18 02:17:23;;;;;;;25.88;15.07;;;;;;;;;;2052462;28;20196;-52
2021/05/18 02:21:47;;;;;;;23.50;15.13;;;;;;;;;;2053798;28;20272;-52
2021/05/18 02:25:21;;;;;;;24.40;13.70;;;;;;;;;;2067308;28;20242;-56
2021/05/18 02:26:42;;;;;;;25.48;15.07;;;;;;;;;;2065476;28;20232;-52
2021/05/18 02:27:42;;;;;;;26.65;15.52;;;;;;;;;;2065497;28;20177;-52
2021/05/18 02:28:43;;;;;;;28.23;15.93;;;;;;;;;;2057474;28;20174;-55
2021/05/18 02:29:44;;;;;;;25.35;15.27;;;;;;;;;;2057109;28;20233;-54
2021/05/18 02:30:48;;;;;;;22.50;15.05;;;;;;;;;;2065437;28;20200;-55
2021/05/18 02:31:57;;;;;;;22.63;14.15;;;;;;;;;;2057588;28;20229;-55
2021/05/18 02:33:09;;;;;;;29.77;16.05;;;;;;;;;;2060592;28;20174;-52
2021/05/18 02:34:12;;;;;;;27.70;15.88;;;;;;;;;;2065108;28;20206;-54
2021/05/18 02:35:15;;;;;;;27.45;15.48;;;;;;;;;;2067283;28;20242;-55
2021/05/18 02:36:17;;;;;;;23.75;14.75;;;;;;;;;;2055083;28;20272;-56
2021/05/18 02:37:17;;;;;;;28.73;15.45;;;;;;;;;;2052624;28;20170;-52
2021/05/18 02:38:19;;;;;;;26.70;15.60;;;;;;;;;;2056813;28;20174;-55
2021/05/18 02:39:24;;;;;;;26.70;15.25;;;;;;;;;;2056793;28;20206;-55
2021/05/18 02:40:27;;;;;;;28.58;14.85;;;;;;;;;;2045527;29;20624;-51
2021/05/18 02:41:28;;;;;;;24.23;15.05;;;;;;;;;;2055988;28;20574;-52
2021/05/18 02:42:33;;;;;;;21.83;15.30;;;;;;;;;;2062515;28;20172;-52
2021/05/18 02:43:41;;;;;;;24.48;15.10;;;;;;;;;;2055181;28;20246;-52
2021/05/18 02:44:56;;;;;;;26.60;16.77;;;;;;;;;;2057192;28;20225;-56
2021/05/18 02:46:09;;;;;;;27.13;15.45;;;;;;;;;;2056149;28;20738;-54
2021/05/18 02:49:53;;;;;;;25.80;15.20;;;;;;;;;;2054553;28;20266;-52
2021/05/18 02:50:54;;;;;;;21.60;14.13;;;;;;;;;;2057340;28;20170;-51
2021/05/18 02:52:13;;;;;;;24.58;13.93;;;;;;;;;;2046421;28;20184;-52
2021/05/18 02:53:16;;;;;;;25.20;14.75;;;;;;;;;;2056851;28;20661;-55
2021/05/18 02:54:22;;;;;;;23.38;15.07;;;;;;;;;;2044939;28;20180;-53
2021/05/18 02:56:12;;;;;;;21.92;14.32;;;;;;;;;;2050836;28;20159;-54
2021/05/18 02:57:00;;;;;;;26.92;13.93;;;;;;;;;;2048930;28;20206;-52
2021/05/18 02:58:00;;;;;;;23.90;14.88;;;;;;;;;;2057382;28;20174;-54
2021/05/18 02:59:13;;;;;;;25.65;15.93;;;;;;;;;;2058823;28;20174;-55
2021/05/18 03:00:15;;;;;;;27.58;15.88;;;;;;;;;;2059395;28;20306;-54
2021/05/18 03:01:16;;;;;;;24.35;15.02;;;;;;;;;;2064615;28;20196;-54
2021/05/18 03:02:16;;;;;;;22.17;14.73;;;;;;;;;;2063611;28;20264;-54
2021/05/18 03:03:16;;;;;;;26.40;14.35;;;;;;;;;;2059695;28;20292;-55
2021/05/18 03:04:17;;;;;;;20.70;14.00;;;;;;;;;;2061272;28;20743;-52
2021/05/18 03:05:21;;;;;;;27.75;16.38;;;;;;;;;;2060269;28;20268;-53
2021/05/18 03:06:22;;;;;;;26.38;15.85;;;;;;;;;;2053505;28;20277;-56
2021/05/18 03:07:22;;;;;;;29.88;15.50;;;;;;;;;;2054971;28;20183;-57
2021/05/18 03:08:22;;;;;;;24.30;15.27;;;;;;;;;;2064453;28;20181;-55
2021/05/18 03:09:23;;;;;;;21.63;15.40;;;;;;;;;;2055274;28;20542;-54
2021/05/18 03:10:23;;;;;;;26.50;15.43;;;;;;;;;;2055369;28;20171;-52
2021/05/18 03:11:24;;;;;;;27.23;16.27;;;;;;;;;;2065330;28;20162;-52
2021/05/18 03:12:24;;;;;;;23.58;14.85;;;;;;;;;;2065040;28;20173;-53
2021/05/18 03:13:25;;;;;;;22.60;16.35;;;;;;;;;;2065232;28;20169;-51
2021/05/18 03:14:25;;;;;;;28.30;15.75;;;;;;;;;;2056272;28;20250;-51
2021/05/18 03:15:25;;;;;;;25.35;15.65;;;;;;;;;;2048440;28;20282;-52
2021/05/18 03:16:26;;;;;;;29.60;17.42;;;;;;;;;;2048675;29;20187;-55
2021/05/18 03:17:26;;;;;;;25.63;16.05;;;;;;;;;;2064194;28;20173;-52
2021/05/18 03:18:27;;;;;;;29.48;15.73;;;;;;;;;;2062219;28;20599;-59
2021/05/18 03:19:27;;;;;;;24.98;15.50;;;;;;;;;;2065169;28;20552;-59
2021/05/18 03:20:27;;;;;;;21.05;15.07;;;;;;;;;;2065193;28;20188;-52
2021/05/18 03:21:28;;;;;;;24.70;14.32;;;;;;;;;;2064614;28;20166;-54
2021/05/18 03:22:28;;;;;;;23.92;14.82;;;;;;;;;;2061863;28;20182;-53
2021/05/18 03:23:28;;;;;;;26.23;15.85;;;;;;;;;;2063988;28;20209;-53
2021/05/18 03:24:29;;;;;;;21.73;15.18;;;;;;;;;;2053292;28;20189;-54
2021/05/18 03:25:29;;;;;;;26.25;16.73;;;;;;;;;;2054772;28;20175;-55
2021/05/18 03:26:29;;;;;;;23.40;15.38;;;;;;;;;;2060332;28;20198;-57
2021/05/18 03:27:30;;;;;;;30.33;16.90;;;;;;;;;;2059967;28;20194;-55
2021/05/18 03:28:30;;;;;;;29.15;17.95;;;;;;;;;;2069792;28;20169;-54
2021/05/18 03:29:33;;;;;;;25.83;16.42;;;;;;;;;;2070043;28;20198;-51
2021/05/18 03:35:30;;;;;;;27.65;16.33;;;;;;;;;;2065567;28;20177;-51
2021/05/18 03:36:31;;;;;;;27.83;18.15;;;;;;;;;;2065112;28;20179;-56
2021/05/18 03:37:55;;;;;;;28.38;17.42;;;;;;;;;;2064372;28;20212;-56
2021/05/18 03:38:56;;;;;;;26.58;17.52;;;;;;;;;;2064665;28;20189;-57
2021/05/18 03:40:01;;;;;;;28.10;17.92;;;;;;;;;;2048855;28;20572;-53
2021/05/18 03:41:08;;;;;;;27.42;17.05;;;;;;;;;;2057262;28;20167;-51
2021/05/18 03:43:21;;;;;;;31.85;18.83;;;;;;;;;;2063740;28;20224;-55
2021/05/18 03:45:31;;;;;;;31.15;18.33;;;;;;;;;;2063056;28;20192;-53
2021/05/18 03:52:31;;;;;;;27.30;18.23;;;;;;;;;;2061793;28;20173;-56
2021/05/18 04:03:16;;;;;;;26.05;17.70;;;;;;;;;;2060221;28;20241;-50
2021/05/18 04:04:19;;;;;;;22.67;16.95;;;;;;;;;;2048180;29;20182;-55
2021/05/18 04:12:46;;;;;;;26.05;18.95;;;;;;;;;;2056484;28;20206;-58
2021/05/18 04:19:03;;;;;;;28.50;18.65;;;;;;;;;;2065753;28;20225;-55
2021/05/18 04:21:52;;;;;;;25.52;17.73;;;;;;;;;;2038632;29;20211;-52
2021/05/18 04:26:11;;;;;;;26.73;16.88;;;;;;;;;;2060490;28;20640;-57
2021/05/18 04:27:04;;;;;;;23.95;16.92;;;;;;;;;;2049710;28;20181;-57
2021/05/18 04:38:53;;;;;;;27.58;17.67;;;;;;;;;;2057820;28;20225;-57
2021/05/18 04:52:47;;;;;;;26.83;18.70;;;;;;;;;;2060305;28;20663;-56
2021/05/18 04:54:13;;;;;;;31.50;19.00;;;;;;;;;;2063933;28;20189;-55
2021/05/18 05:00:13;;;;;;;26.65;18.17;;;;;;;;;;2057318;28;20587;-52
2021/05/18 05:01:16;;;;;;;28.40;18.80;;;;;;;;;;2060282;28;20181;-58
2021/05/18 05:04:03;;;;;;;26.55;19.48;;;;;;;;;;2062901;28;20269;-58
2021/05/18 05:07:33;;;;;;;28.55;18.15;;;;;;;;;;2061243;28;20293;-58
2021/05/18 05:09:52;;;;;;;24.67;17.25;;;;;;;;;;2057714;28;20645;-56
2021/05/18 05:14:34;;;;;;;23.77;16.80;;;;;;;;;;2023996;29;20317;-55
2021/05/18 05:15:34;;;;;;;29.10;17.58;;;;;;;;;;2053800;28;20202;-55
2021/05/18 05:16:34;;;;;;;22.63;15.95;;;;;;;;;;2059235;28;20166;-57
2021/05/18 05:17:34;;;;;;;24.80;16.88;;;;;;;;;;2058043;28;20166;-56
2021/05/18 05:18:35;;;;;;;21.48;16.85;;;;;;;;;;2055187;28;20178;-51
2021/05/18 05:19:35;;;;;;;23.13;17.38;;;;;;;;;;2046545;29;20254;-55
2021/05/18 05:20:36;;;;;;;27.63;17.20;;;;;;;;;;2054183;28;20210;-52
2021/05/18 05:21:36;;;;;;;24.17;17.08;;;;;;;;;;2066617;28;20231;-55
2021/05/18 05:22:37;;;;;;;25.02;17.15;;;;;;;;;;2059588;28;20597;-56
2021/05/18 05:23:37;;;;;;;23.98;16.67;;;;;;;;;;2064696;28;20187;-52
2021/05/18 05:24:37;;;;;;;24.27;16.15;;;;;;;;;;2051842;28;20718;-55
2021/05/18 05:25:38;;;;;;;22.25;15.60;;;;;;;;;;2055353;28;20194;-57
2021/05/18 05:26:38;;;;;;;20.85;15.57;;;;;;;;;;2058802;28;20583;-53
2021/05/18 05:27:39;;;;;;;25.65;15.63;;;;;;;;;;2063034;28;20216;-55
2021/05/18 05:28:39;;;;;;;18.52;14.80;;;;;;;;;;2064900;28;20212;-56
2021/05/18 05:29:39;;;;;;;26.92;15.60;;;;;;;;;;2066639;28;20177;-55
2021/05/18 05:30:39;;;;;;;22.20;15.65;;;;;;;;;;2064942;28;20518;-56
2021/05/18 05:31:40;;;;;;;23.77;15.20;;;;;;;;;;2062834;28;20665;-58
2021/05/18 05:32:40;;;;;;;18.67;14.98;;;;;;;;;;2066005;28;20217;-53
2021/05/18 05:33:41;;;;;;;19.92;14.15;;;;;;;;;;2056869;28;20196;-56
2021/05/18 05:34:41;;;;;;;21.88;14.88;;;;;;;;;;2058033;28;20170;-56
2021/05/18 05:35:41;;;;;;;25.75;15.18;;;;;;;;;;2060074;28;20216;-57
2021/05/18 05:36:41;;;;;;;24.80;13.60;;;;;;;;;;2063132;28;20207;-58
2021/05/18 05:37:42;;;;;;;21.90;14.88;;;;;;;;;;2050566;28;20179;-54
2021/05/18 05:38:42;;;;;;;19.95;14.70;;;;;;;;;;2047278;29;20171;-52
2021/05/18 05:39:42;;;;;;;24.52;15.30;;;;;;;;;;2048679;29;20202;-52
2021/05/18 05:40:43;;;;;;;21.70;14.23;;;;;;;;;;2056445;28;20205;-51
2021/05/18 05:41:43;;;;;;;19.33;14.25;;;;;;;;;;2062914;28;20700;-55
2021/05/18 05:42:43;;;;;;;22.30;14.60;;;;;;;;;;2056945;28;20171;-50
2021/05/18 05:43:44;;;;;;;18.50;14.98;;;;;;;;;;2046048;29;20183;-56
2021/05/18 05:44:44;;;;;;;21.88;14.27;;;;;;;;;;2055264;28;20182;-55
2021/05/18 05:45:44;;;;;;;19.30;14.38;;;;;;;;;;2062857;28;20190;-51
2021/05/18 05:46:45;;;;;;;21.38;14.23;;;;;;;;;;2056154;28;20186;-52
2021/05/18 05:47:45;;;;;;;19.55;14.43;;;;;;;;;;2056160;28;20178;-52
2021/05/18 05:48:52;;;;;;;20.50;13.85;;;;;;;;;;2063563;28;20588;-52
2021/05/18 05:49:55;;;;;;;19.48;14.25;;;;;;;;;;2065322;28;20196;-55
2021/05/18 05:50:56;;;;;;;17.50;13.82;;;;;;;;;;2051460;28;20185;-52
2021/05/18 05:51:56;;;;;;;21.33;13.70;;;;;;;;;;2057273;28;20195;-54
2021/05/18 05:52:56;;;;;;;19.02;13.07;;;;;;;;;;2045705;28;20297;-56
2021/05/18 05:53:59;;;;;;;19.48;13.73;;;;;;;;;;2048429;29;20187;-54
2021/05/18 05:54:59;;;;;;;20.73;13.23;;;;;;;;;;2057115;28;20175;-57
2021/05/18 05:55:59;;;;;;;18.45;13.70;;;;;;;;;;2057717;28;20198;-53
2021/05/18 05:57:00;;;;;;;20.65;13.50;;;;;;;;;;2059573;28;20222;-54
2021/05/18 05:58:00;;;;;;;17.83;13.25;;;;;;;;;;2056664;28;20182;-52
2021/05/18 05:59:02;;;;;;;18.50;13.25;;;;;;;;;;2062457;28;20186;-52
2021/05/18 06:00:07;;;;;;;23.10;14.60;;;;;;;;;;2065028;28;20175;-53
2021/05/18 06:01:08;;;;;;;19.52;14.43;;;;;;;;;;2060285;28;20178;-51
2021/05/18 06:02:09;;;;;;;16.33;13.80;;;;;;;;;;2064332;28;20232;-53
2021/05/18 06:03:09;;;;;;;18.95;14.82;;;;;;;;;;2063870;28;20267;-55
2021/05/18 06:04:09;;;;;;;19.20;14.35;;;;;;;;;;2061018;28;20170;-55
2021/05/18 06:05:10;;;;;;;21.45;14.23;;;;;;;;;;2056911;28;20171;-52
2021/05/18 06:06:10;;;;;;;20.48;13.73;;;;;;;;;;2066412;23;20221;-59
2021/05/18 06:07:11;;;;;;;23.35;14.40;;;;;;;;;;2071742;28;20234;-56
2021/05/18 06:08:11;;;;;;;17.15;13.73;;;;;;;;;;2072161;28;20173;-59
2021/05/18 06:09:11;;;;;;;17.90;12.82;;;;;;;;;;2064210;28;20181;-57
2021/05/18 06:10:21;;;;;;;17.52;13.15;;;;;;;;;;2064065;28;20197;-56
2021/05/18 06:15:12;;;;;;;18.65;13.40;;;;;;;;;;2075132;28;20679;-57
2021/05/18 06:41:08;;;;;;;15.98;11.43;;;;;;;;;;2074379;28;20222;-61
2021/05/18 06:43:05;;;;;;;19.02;11.85;;;;;;;;;;2074315;28;20188;-58
2021/05/18 06:47:00;;;;;;;17.65;11.43;;;;;;;;;;2067615;28;20171;-59
2021/05/18 06:48:02;;;;;;;17.90;11.95;;;;;;;;;;2064177;28;20182;-57
2021/05/18 06:49:02;;;;;;;16.30;11.88;;;;;;;;;;2063703;28;20183;-58
2021/05/18 06:51:15;;;;;;;15.48;10.48;;;;;;;;;;2070695;28;20223;-60
2021/05/18 06:52:16;;;;;;;12.57;10.80;;;;;;;;;;2053835;28;20680;-60
2021/05/18 06:53:16;;;;;;;16.75;10.90;;;;;;;;;;2053354;28;20174;-61
2021/05/18 06:54:16;;;;;;;14.15;10.27;;;;;;;;;;2072353;28;20176;-60
2021/05/18 06:55:24;;;;;;;18.85;11.05;;;;;;;;;;2072248;28;21483;-59
2021/05/18 06:56:35;;;;;;;14.60;10.68;;;;;;;;;;2069246;28;20208;-62
2021/05/18 06:57:37;;;;;;;16.63;11.02;;;;;;;;;;2068433;28;20182;-62
2021/05/18 07:00:59;;;;;;;16.02;10.70;;;;;;;;;;2073903;28;20766;-59
2021/05/18 07:02:00;;;;;;;15.63;8.85;;;;;;;;;;2074838;28;20180;-59
2021/05/18 07:03:02;;;;;;;17.52;11.25;;;;;;;;;;2072081;28;20188;-58
2021/05/18 07:04:06;;;;;;;15.07;10.25;;;;;;;;;;2063838;28;20550;-62
2021/05/18 07:05:22;;;;;;;13.30;10.05;;;;;;;;;;2068324;28;20182;-58
2021/05/18 07:07:42;;;;;;;15.02;10.15;;;;;;;;;;2077116;28;20167;-59
2021/05/18 07:09:43;;;;;;;12.13;9.45;;;;;;;;;;2082533;28;20627;-60
2021/05/18 07:10:44;;;;;;;11.65;9.48;;;;;;;;;;2074495;28;20173;-59
2021/05/18 07:11:45;;;;;;;11.63;10.13;;;;;;;;;;2076028;28;20219;-59
2021/05/18 07:12:45;;;;;;;14.95;10.57;;;;;;;;;;2074425;28;20185;-59
2021/05/18 07:13:45;;;;;;;11.85;9.88;;;;;;;;;;2066047;28;20644;-60
2021/05/18 07:14:46;;;;;;;16.58;10.95;;;;;;;;;;2071174;28;20702;-59
2021/05/18 07:15:46;;;;;;;15.82;11.65;;;;;;;;;;2067320;28;20252;-59
2021/05/18 07:16:47;;;;;;;14.50;9.57;;;;;;;;;;2059079;28;20261;-60
2021/05/18 07:17:47;;;;;;;11.95;9.25;;;;;;;;;;2067023;28;20186;-59
2021/05/18 07:18:47;;;;;;;16.38;9.90;;;;;;;;;;2083667;28;20164;-61
2021/05/18 07:19:47;;;;;;;11.93;9.27;;;;;;;;;;2073447;28;20181;-60
2021/05/18 07:20:48;;;;;;;14.52;9.52;;;;;;;;;;2066447;28;20209;-62
2021/05/18 07:21:48;;;;;;;12.75;9.48;;;;;;;;;;2076730;28;20173;-61
2021/05/18 07:22:56;;;;;;;13.07;9.30;;;;;;;;;;2077263;28;20267;-60
2021/05/18 07:23:57;;;;;;;10.20;9.00;;;;;;;;;;2075731;28;20180;-59
2021/05/18 07:24:57;;;;;;;16.52;10.10;;;;;;;;;;2064058;28;20170;-59
2021/05/18 07:25:57;;;;;;;11.52;9.63;;;;;;;;;;2067439;28;20201;-56
2021/05/18 07:26:58;;;;;;;14.38;9.68;;;;;;;;;;2071841;28;20324;-59
2021/05/18 07:27:59;;;;;;;13.18;10.15;;;;;;;;;;2078163;28;20223;-58
2021/05/18 07:28:59;;;;;;;13.40;9.93;;;;;;;;;;2067151;28;20189;-60
2021/05/18 07:30:00;;;;;;;10.77;9.68;;;;;;;;;;2071282;28;20180;-61
2021/05/18 07:31:01;;;;;;;14.23;9.90;;;;;;;;;;2065921;28;20174;-59
2021/05/18 07:32:01;;;;;;;12.88;9.55;;;;;;;;;;2076819;28;20654;-59
2021/05/18 07:33:02;;;;;;;15.23;10.30;;;;;;;;;;2074220;28;20208;-58
2021/05/18 07:34:02;;;;;;;12.43;10.27;;;;;;;;;;2070930;28;20255;-58
2021/05/18 07:35:03;;;;;;;11.80;9.50;;;;;;;;;;2065977;28;20186;-60
2021/05/18 07:36:10;;;;;;;14.07;10.80;;;;;;;;;;2069800;28;20205;-60
2021/05/18 07:37:10;;;;;;;14.88;9.80;;;;;;;;;;2067349;28;20218;-59
2021/05/18 07:38:10;;;;;;;11.52;9.38;;;;;;;;;;2065481;28;20185;-59
2021/05/18 07:39:11;;;;;;;12.68;9.68;;;;;;;;;;2076738;28;20168;-61
2021/05/18 07:40:11;;;;;;;11.23;9.55;;;;;;;;;;2074245;28;20215;-59
2021/05/18 07:41:11;;;;;;;14.43;9.02;;;;;;;;;;2076307;28;20183;-59
2021/05/18 07:42:12;;;;;;;13.63;9.55;;;;;;;;;;2074473;28;20685;-61
2021/05/18 07:43:17;;;;;;;11.60;9.32;;;;;;;;;;2057725;28;20274;-60
2021/05/18 07:44:18;;;;;;;12.82;8.50;;;;;;;;;;2058252;28;20644;-59
2021/05/18 07:45:21;;;;;;;13.82;10.18;;;;;;;;;;2076753;28;20180;-59
2021/05/18 07:46:23;;;;;;;9.57;8.45;;;;;;;;;;2077004;28;20235;-60
2021/05/18 07:47:28;;;;;;;16.17;9.30;;;;;;;;;;2077787;28;20603;-61
2021/05/18 07:49:49;;;;;;;9.75;8.65;;;;;;;;;;2073769;28;20179;-61
2021/05/18 08:05:19;;;;;;;12.27;7.50;;;;;;;;;;2075076;28;20279;-62
2021/05/18 08:06:19;;;;;;;8.18;6.50;;;;;;;;;;2074143;28;20594;-61
2021/05/18 08:07:20;;;;;;;7.43;5.28;;;;;;;;;;2072269;28;20177;-60
2021/05/18 08:08:20;;;;;;;10.00;7.05;;;;;;;;;;2073821;28;20244;-60
2021/05/18 08:09:22;;;;;;;8.15;7.28;;;;;;;;;;2061899;28;20185;-60
2021/05/18 08:11:29;;;;;;;8.32;6.50;;;;;;;;;;2065739;28;20197;-61
2021/05/18 08:12:29;;;;;;;8.00;7.05;;;;;;;;;;2066481;28;20209;-61
2021/05/18 08:13:30;;;;;;;9.70;6.63;;;;;;;;;;2059228;28;20584;-61
2021/05/18 08:14:32;;;;;;;7.68;6.18;;;;;;;;;;2055671;28;20182;-62
2021/05/18 08:15:41;;;;;;;7.32;6.63;;;;;;;;;;2063893;28;20243;-61
2021/05/18 08:16:59;;;;;;;8.48;7.32;;;;;;;;;;2069291;28;20185;-60
2021/05/18 08:18:17;;;;;;;7.20;6.22;;;;;;;;;;2070491;28;20714;-62
2021/05/18 08:19:40;;;;;;;8.40;7.13;;;;;;;;;;2072611;28;20804;-60
2021/05/18 09:28:45;;;;;;;8.95;6.15;;;;;;;;;;2074645;28;20662;-62
2021/05/18 09:34:36;;;;;;;12.38;9.50;;;;;;;;;;2070015;28;20173;-60
2021/05/18 09:50:55;;;;;;;12.50;10.07;;;;;;;;;;2081739;28;20650;-54
2021/05/18 10:22:05;;;;;;;14.93;12.57;;;;;;;;;;2067887;28;20169;-59
2021/05/18 10:24:42;;;;;;;11.75;10.57;;;;;;;;;;2070656;28;20174;-58
2021/05/18 10:35:01;;;;;;;13.95;12.55;;;;;;;;;;2074474;28;20188;-61
2021/05/18 10:37:37;;;;;;;9.88;8.90;;;;;;;;;;2073664;28;20262;-59
2021/05/18 10:38:47;;;;;;;13.23;10.07;;;;;;;;;;2072280;28;20180;-60
2021/05/18 10:40:07;;;;;;;10.43;8.63;;;;;;;;;;2071214;28;20564;-53
2021/05/18 10:41:10;;;;;;;10.18;9.07;;;;;;;;;;2070247;28;20174;-59
2021/05/18 10:42:11;;;;;;;10.43;9.48;;;;;;;;;;2071727;28;20273;-57
2021/05/18 10:43:18;;;;;;;12.05;10.88;;;;;;;;;;2071568;28;20200;-56
2021/05/18 10:44:19;;;;;;;10.85;9.75;;;;;;;;;;2072105;28;20196;-62
2021/05/18 10:45:19;;;;;;;10.50;9.50;;;;;;;;;;2070170;28;20176;-60
2021/05/18 10:46:22;;;;;;;10.02;9.13;;;;;;;;;;2069864;28;20192;-59
2021/05/18 10:47:41;;;;;;;10.02;9.13;;;;;;;;;;2073558;28;20661;-53